createdAt,value
2022-07-29T00:02:08.058Z,26.50
2022-07-29T00:04:56.547Z,26.40
2022-07-29T00:07:45.031Z,26.30
2022-07-29T00:10:33.677Z,26.20
2022-07-29T00:13:32.372Z,26.10
2022-07-29T00:16:23.101Z,26.10
2022-07-29T00:19:11.615Z,26.00
2022-07-29T00:22:01.228Z,25.90
2022-07-29T00:24:49.994Z,25.90
2022-07-29T00:27:38.562Z,25.80
2022-07-29T00:30:27.071Z,25.80
2022-07-29T00:33:17.133Z,25.70
2022-07-29T00:36:05.462Z,25.70
2022-07-29T00:38:53.993Z,25.60
2022-07-29T00:41:42.497Z,25.60
2022-07-29T00:44:30.959Z,25.50
2022-07-29T00:47:19.476Z,25.40
2022-07-29T00:50:11.360Z,25.40
2022-07-29T00:52:59.846Z,25.30
2022-07-29T00:55:48.322Z,25.20
2022-07-29T00:58:37.471Z,25.10
2022-07-29T01:01:25.995Z,25.00
2022-07-29T01:04:14.721Z,24.90
2022-07-29T01:07:06.524Z,24.80
2022-07-29T01:09:55.384Z,24.70
2022-07-29T01:12:44.283Z,24.70
2022-07-29T01:15:32.965Z,24.60
2022-07-29T01:18:26.309Z,24.60
2022-07-29T01:21:27.615Z,24.50
2022-07-29T01:24:50.981Z,24.50
2022-07-29T01:27:52.966Z,24.40
2022-07-29T01:30:42.895Z,24.40
2022-07-29T01:33:49.094Z,24.40
2022-07-29T01:36:39.267Z,24.30
2022-07-29T01:39:33.972Z,24.30
2022-07-29T01:42:28.509Z,24.20
2022-07-29T01:45:19.011Z,24.20
2022-07-29T01:48:15.577Z,24.10
2022-07-29T01:51:07.942Z,24.10
2022-07-29T01:54:11.879Z,24.10
2022-07-29T01:57:00.910Z,24.00
2022-07-29T01:59:49.658Z,24.00
2022-07-29T02:02:38.557Z,23.90
2022-07-29T02:05:29.080Z,23.90
2022-07-29T02:08:17.743Z,23.90
2022-07-29T02:11:06.311Z,23.80
2022-07-29T02:13:55.735Z,23.80
2022-07-29T02:16:44.273Z,23.80
2022-07-29T02:19:34.253Z,23.80
2022-07-29T02:22:24.158Z,23.90
2022-07-29T02:25:14.153Z,23.90
2022-07-29T02:28:02.938Z,24.00
2022-07-29T02:30:51.482Z,24.00
2022-07-29T02:33:39.981Z,24.00
2022-07-29T02:36:28.481Z,24.00
2022-07-29T02:39:18.372Z,24.00
2022-07-29T02:42:09.926Z,24.00
2022-07-29T02:44:58.372Z,24.00
2022-07-29T02:47:49.456Z,24.00
2022-07-29T02:50:41.273Z,24.10
2022-07-29T02:53:29.755Z,24.10
2022-07-29T02:56:19.772Z,24.10
2022-07-29T02:59:11.184Z,24.20
2022-07-29T03:02:00.538Z,24.20
2022-07-29T03:04:50.126Z,24.20
2022-07-29T03:07:38.721Z,24.20
2022-07-29T03:10:27.789Z,24.20
2022-07-29T03:13:17.696Z,24.20
2022-07-29T03:16:06.830Z,24.20
2022-07-29T03:18:55.425Z,24.20
2022-07-29T03:21:43.892Z,24.10
2022-07-29T03:24:33.747Z,24.10
2022-07-29T03:27:22.280Z,24.10
2022-07-29T03:30:18.425Z,24.10
2022-07-29T03:33:13.677Z,24.00
2022-07-29T03:36:03.353Z,24.00
2022-07-29T03:38:51.842Z,24.00
2022-07-29T03:41:42.606Z,24.00
2022-07-29T03:44:31.155Z,23.90
2022-07-29T03:47:43.700Z,23.90
2022-07-29T03:50:33.369Z,23.90
2022-07-29T03:53:21.839Z,23.90
2022-07-29T03:56:10.335Z,23.80
2022-07-29T03:58:58.810Z,23.80
2022-07-29T04:01:47.316Z,23.80
2022-07-29T04:04:37.331Z,23.80
2022-07-29T04:07:25.880Z,23.70
2022-07-29T04:10:14.571Z,23.70
2022-07-29T04:13:03.129Z,23.60
2022-07-29T04:15:52.005Z,23.60
2022-07-29T04:18:40.643Z,23.60
2022-07-29T04:21:30.537Z,23.50
2022-07-29T04:24:19.355Z,23.50
2022-07-29T04:27:08.291Z,23.40
2022-07-29T04:29:57.605Z,23.40
2022-07-29T04:32:46.422Z,23.40
2022-07-29T04:35:38.574Z,23.40
2022-07-29T04:38:28.773Z,23.30
2022-07-29T04:41:17.239Z,23.30
2022-07-29T04:44:09.298Z,23.30
2022-07-29T04:46:58.906Z,23.30
2022-07-29T04:49:47.454Z,23.30
2022-07-29T04:52:36.558Z,23.30
2022-07-29T04:55:26.488Z,23.30
2022-07-29T04:58:14.991Z,23.30
2022-07-29T05:01:03.534Z,23.30
2022-07-29T05:03:54.863Z,23.30
2022-07-29T05:06:45.608Z,23.40
2022-07-29T05:09:34.176Z,23.40
2022-07-29T05:12:23.987Z,23.40
2022-07-29T05:15:12.676Z,23.40
2022-07-29T05:18:01.575Z,23.50
2022-07-29T05:20:50.365Z,23.50
2022-07-29T05:23:39.034Z,23.60
2022-07-29T05:26:27.532Z,23.60
2022-07-29T05:29:44.365Z,23.80
2022-07-29T05:32:25.782Z,24.00
2022-07-29T05:35:14.686Z,24.30
2022-07-29T05:38:03.243Z,24.60
2022-07-29T05:40:51.718Z,24.90
2022-07-29T05:43:40.257Z,25.20
2022-07-29T05:46:30.404Z,25.30
2022-07-29T05:49:26.908Z,25.50
2022-07-29T05:52:16.010Z,25.50
2022-07-29T05:55:06.485Z,25.60
2022-07-29T05:57:55.079Z,25.80
2022-07-29T06:00:44.086Z,26.00
2022-07-29T06:03:33.914Z,26.30
2022-07-29T06:06:22.445Z,26.60
2022-07-29T06:09:12.183Z,26.90
2022-07-29T06:12:01.270Z,27.20
2022-07-29T06:14:53.925Z,27.50
2022-07-29T06:17:59.426Z,27.90
2022-07-29T06:20:50.911Z,28.20
2022-07-29T06:23:39.773Z,28.50
2022-07-29T06:26:31.485Z,28.80
2022-07-29T06:29:21.179Z,29.00
2022-07-29T06:32:10.117Z,29.30
2022-07-29T06:35:17.724Z,29.50
2022-07-29T06:38:31.516Z,29.70
2022-07-29T06:41:17.807Z,30.00
2022-07-29T06:44:06.526Z,30.30
2022-07-29T06:46:55.762Z,30.60
2022-07-29T06:49:44.357Z,30.90
2022-07-29T06:52:32.904Z,31.10
2022-07-29T06:55:25.354Z,31.40
2022-07-29T06:58:16.928Z,31.40
2022-07-29T07:01:11.984Z,31.40
2022-07-29T07:04:02.394Z,31.30
2022-07-29T07:06:50.922Z,31.10
2022-07-29T07:09:40.336Z,30.90
2022-07-29T07:12:30.895Z,30.80
2022-07-29T07:15:22.703Z,30.70
2022-07-29T07:18:27.826Z,30.60
2022-07-29T07:21:18.861Z,30.50
2022-07-29T07:24:08.775Z,30.60
2022-07-29T07:26:57.297Z,30.50
2022-07-29T07:29:47.170Z,30.40
2022-07-29T07:32:35.774Z,30.30
2022-07-29T07:35:24.301Z,30.20
2022-07-29T07:38:12.828Z,30.10
2022-07-29T07:41:01.358Z,30.00
2022-07-29T07:43:49.973Z,29.90
2022-07-29T07:46:39.811Z,29.90
2022-07-29T07:49:28.488Z,30.00
2022-07-29T07:52:17.312Z,30.10
2022-07-29T07:55:06.928Z,30.20
2022-07-29T07:57:55.488Z,30.20
2022-07-29T08:00:44.027Z,30.20
2022-07-29T08:03:34.823Z,30.10
2022-07-29T08:06:24.711Z,30.00
2022-07-29T08:09:28.075Z,29.80
2022-07-29T08:12:17.510Z,29.70
2022-07-29T08:15:08.614Z,29.70
2022-07-29T08:17:57.087Z,29.70
2022-07-29T08:20:46.915Z,29.70
2022-07-29T08:23:47.047Z,29.70
2022-07-29T08:26:37.348Z,29.70
2022-07-29T08:29:25.889Z,29.70
2022-07-29T08:32:22.272Z,29.60
2022-07-29T08:35:23.081Z,29.50
2022-07-29T08:38:12.923Z,29.30
2022-07-29T08:41:02.342Z,29.20
2022-07-29T08:43:51.936Z,29.20
2022-07-29T08:46:40.848Z,29.20
2022-07-29T08:49:29.378Z,29.30
2022-07-29T08:52:17.851Z,29.40
2022-07-29T08:55:09.250Z,29.50
2022-07-29T08:57:57.872Z,29.60
2022-07-29T09:00:50.670Z,29.80
2022-07-29T09:03:39.912Z,30.00
2022-07-29T09:06:29.954Z,30.20
2022-07-29T09:09:18.432Z,30.30
2022-07-29T09:12:09.166Z,30.40
2022-07-29T09:14:57.721Z,30.50
2022-07-29T09:17:47.830Z,30.60
2022-07-29T09:20:50.326Z,30.70
2022-07-29T09:23:40.664Z,30.90
2022-07-29T09:26:31.278Z,31.00
2022-07-29T09:29:22.909Z,31.10
2022-07-29T09:32:12.447Z,31.10
2022-07-29T09:35:16.873Z,31.20
2022-07-29T09:38:13.527Z,31.30
2022-07-29T09:41:05.589Z,31.30
2022-07-29T09:43:58.108Z,31.40
2022-07-29T09:46:59.637Z,31.40
2022-07-29T09:49:58.804Z,31.40
2022-07-29T09:52:49.388Z,31.40
2022-07-29T09:55:50.630Z,31.40
2022-07-29T09:58:40.382Z,31.30
2022-07-29T10:01:30.314Z,31.30
2022-07-29T10:04:20.490Z,31.30
2022-07-29T10:07:09.154Z,31.40
2022-07-29T10:09:59.126Z,31.60
2022-07-29T10:12:52.613Z,31.70
2022-07-29T10:15:44.626Z,31.90
2022-07-29T10:18:33.168Z,32.10
2022-07-29T10:21:35.522Z,32.20
2022-07-29T10:24:24.897Z,32.30
2022-07-29T10:27:13.664Z,32.30
2022-07-29T10:30:02.676Z,32.40
2022-07-29T10:33:13.453Z,32.40
2022-07-29T10:36:15.465Z,32.40
2022-07-29T10:39:12.456Z,32.40
2022-07-29T10:42:16.930Z,32.40
2022-07-29T10:45:08.949Z,32.50
2022-07-29T10:48:07.942Z,32.60
2022-07-29T10:50:58.322Z,32.70
2022-07-29T10:53:51.349Z,33.00
2022-07-29T10:56:41.499Z,33.20
2022-07-29T10:59:36.367Z,33.50
2022-07-29T11:02:45.065Z,33.70
2022-07-29T11:05:56.020Z,34.00
2022-07-29T11:08:44.581Z,34.10
2022-07-29T11:11:36.606Z,34.20
2022-07-29T11:14:58.994Z,34.20
2022-07-29T11:18:15.282Z,34.20
2022-07-29T11:21:05.862Z,34.20
2022-07-29T11:23:54.648Z,34.20
2022-07-29T11:26:43.428Z,34.30
2022-07-29T11:29:39.990Z,34.30
2022-07-29T11:32:40.152Z,34.30
2022-07-29T11:35:38.465Z,34.40
2022-07-29T11:38:29.334Z,34.40
2022-07-29T11:41:27.648Z,34.50
2022-07-29T11:44:17.994Z,34.60
2022-07-29T11:47:06.735Z,34.60
2022-07-29T11:49:58.079Z,34.70
2022-07-29T11:55:58.518Z,34.40
2022-07-29T11:58:47.085Z,34.20
2022-07-29T12:01:35.555Z,34.10
2022-07-29T12:04:24.810Z,33.90
2022-07-29T12:07:16.222Z,33.70
2022-07-29T12:10:06.222Z,33.60
2022-07-29T12:12:54.818Z,33.60
2022-07-29T12:15:47.148Z,33.60
2022-07-29T12:18:35.926Z,33.60
2022-07-29T12:21:25.729Z,33.60
2022-07-29T12:24:15.831Z,33.70
2022-07-29T12:27:04.775Z,33.70
2022-07-29T12:30:00.668Z,33.70
2022-07-29T12:32:50.013Z,33.70
2022-07-29T12:35:38.449Z,33.70
2022-07-29T12:38:27.030Z,33.70
2022-07-29T12:41:16.889Z,33.70
2022-07-29T12:44:05.959Z,33.70
2022-07-29T12:47:04.552Z,33.90
2022-07-29T12:49:53.303Z,33.90
2022-07-29T12:52:41.773Z,34.00
2022-07-29T12:55:44.446Z,34.00
2022-07-29T12:58:36.308Z,34.00
2022-07-29T13:01:24.882Z,34.00
2022-07-29T13:04:13.388Z,34.00
2022-07-29T13:07:04.538Z,33.90
2022-07-29T13:09:53.608Z,33.90
2022-07-29T13:12:42.309Z,33.90
2022-07-29T13:15:32.477Z,33.70
2022-07-29T13:18:30.428Z,33.60
2022-07-29T13:21:19.094Z,33.50
2022-07-29T13:24:08.961Z,33.40
2022-07-29T13:26:57.459Z,33.30
2022-07-29T13:29:46.003Z,33.30
2022-07-29T13:32:37.253Z,33.30
2022-07-29T13:35:25.765Z,33.30
2022-07-29T13:38:14.392Z,33.30
2022-07-29T13:41:03.109Z,33.30
2022-07-29T13:43:51.843Z,33.40
2022-07-29T13:46:40.321Z,33.40
2022-07-29T13:49:30.225Z,33.50
2022-07-29T13:52:18.767Z,33.50
2022-07-29T13:55:09.770Z,33.50
2022-07-29T13:57:58.270Z,33.50
2022-07-29T14:00:47.593Z,33.40
2022-07-29T14:03:37.609Z,33.30
2022-07-29T14:06:27.481Z,33.30
2022-07-29T14:09:18.493Z,33.30
2022-07-29T14:12:07.753Z,33.20
2022-07-29T14:14:56.214Z,33.30
2022-07-29T14:17:44.680Z,33.20
2022-07-29T14:20:33.565Z,33.20
2022-07-29T14:23:23.409Z,33.20
2022-07-29T14:26:15.799Z,33.20
2022-07-29T14:29:10.009Z,33.20
2022-07-29T14:31:59.502Z,33.20
2022-07-29T14:34:48.365Z,33.20
2022-07-29T14:37:40.125Z,33.20
2022-07-29T14:40:30.677Z,33.10
2022-07-29T14:43:20.437Z,33.00
2022-07-29T14:46:10.395Z,33.00
2022-07-29T14:48:59.003Z,33.00
2022-07-29T14:51:47.563Z,32.90
2022-07-29T14:54:35.984Z,32.90
2022-07-29T14:57:26.295Z,32.90
2022-07-29T15:00:15.913Z,32.90
2022-07-29T15:03:04.566Z,32.90
2022-07-29T15:05:53.104Z,32.90
2022-07-29T15:08:41.815Z,32.90
2022-07-29T15:11:30.371Z,32.90
2022-07-29T15:14:26.838Z,32.90
2022-07-29T15:17:15.709Z,32.90
2022-07-29T15:20:04.681Z,33.00
2022-07-29T15:22:53.194Z,33.00
2022-07-29T15:25:41.761Z,33.00
2022-07-29T15:28:30.318Z,32.90
2022-07-29T15:31:20.686Z,32.90
2022-07-29T15:34:09.238Z,32.90
2022-07-29T15:36:57.731Z,32.80
2022-07-29T15:39:46.203Z,32.70
2022-07-29T15:42:34.781Z,32.70
2022-07-29T15:45:23.733Z,32.60
2022-07-29T15:48:14.892Z,32.60
2022-07-29T15:51:03.522Z,32.50
2022-07-29T15:53:53.313Z,32.40
2022-07-29T15:56:42.305Z,32.40
2022-07-29T15:59:30.938Z,32.40
2022-07-29T16:02:19.709Z,32.30
2022-07-29T16:05:09.984Z,32.30
2022-07-29T16:08:00.570Z,32.30
2022-07-29T16:10:49.033Z,32.30
2022-07-29T16:13:37.944Z,32.30
2022-07-29T16:16:26.996Z,32.30
2022-07-29T16:19:15.697Z,32.20
2022-07-29T16:22:05.848Z,32.20
2022-07-29T16:27:24.706Z,32.10
2022-07-29T16:30:13.778Z,32.00
2022-07-29T16:33:06.417Z,32.00
2022-07-29T16:35:56.613Z,32.00
2022-07-29T16:38:46.971Z,31.90
2022-07-29T16:41:36.079Z,31.80
2022-07-29T16:44:25.948Z,31.60
2022-07-29T16:48:53.683Z,31.10
2022-07-29T16:51:42.604Z,30.70
2022-07-29T16:54:31.165Z,30.30
2022-07-29T16:57:19.675Z,29.90
2022-07-29T17:00:09.893Z,29.50
2022-07-29T17:03:00.016Z,29.10
2022-07-29T17:05:52.220Z,28.60
2022-07-29T17:08:42.649Z,28.30
2022-07-29T17:11:52.452Z,28.00
2022-07-29T17:14:40.195Z,27.70
2022-07-29T17:17:38.606Z,27.40
2022-07-29T17:20:37.229Z,27.20
2022-07-29T17:23:27.159Z,26.90
2022-07-29T17:26:15.873Z,26.60
2022-07-29T17:29:04.439Z,26.40
2022-07-29T17:31:53.183Z,26.20
2022-07-29T17:34:42.662Z,26.00
2022-07-29T17:37:31.226Z,25.90
2022-07-29T17:40:21.602Z,25.70
2022-07-29T17:43:10.252Z,25.60
2022-07-29T17:45:59.630Z,25.50
2022-07-29T17:48:48.441Z,25.40
2022-07-29T17:51:37.051Z,25.30
2022-07-29T17:54:25.558Z,25.30
2022-07-29T17:57:16.609Z,25.20
2022-07-29T18:00:08.329Z,25.20
2022-07-29T18:02:57.272Z,25.10
2022-07-29T18:05:46.015Z,25.10
2022-07-29T18:08:34.966Z,25.10
2022-07-29T18:11:23.739Z,25.10
2022-07-29T18:14:13.662Z,25.10
2022-07-29T18:17:02.309Z,25.00
2022-07-29T18:19:52.731Z,25.00
2022-07-29T18:22:41.282Z,25.00
2022-07-29T18:25:29.881Z,24.90
2022-07-29T18:28:18.383Z,24.90
2022-07-29T18:31:08.330Z,24.90
2022-07-29T18:33:59.958Z,24.80
2022-07-29T18:36:48.723Z,24.80
2022-07-29T18:39:37.253Z,24.70
2022-07-29T18:42:25.808Z,24.70
2022-07-29T18:45:19.305Z,24.70
2022-07-29T18:48:13.264Z,24.60
2022-07-29T18:51:02.433Z,24.60
2022-07-29T18:53:58.030Z,24.50
2022-07-29T18:56:46.742Z,24.50
2022-07-29T18:59:35.630Z,24.50
2022-07-29T19:02:24.716Z,24.50
2022-07-29T19:05:14.673Z,24.40
2022-07-29T19:08:04.179Z,24.40
2022-07-29T19:10:53.368Z,24.40
2022-07-29T19:13:42.064Z,24.40
2022-07-29T19:16:30.608Z,24.40
2022-07-29T19:19:19.138Z,24.30
2022-07-29T19:22:09.186Z,24.30
2022-07-29T19:24:57.834Z,24.30
2022-07-29T19:27:46.850Z,24.30
2022-07-29T19:30:35.364Z,24.30
2022-07-29T19:33:23.845Z,24.20
2022-07-29T19:36:12.317Z,24.20
2022-07-29T19:39:02.392Z,24.20
2022-07-29T19:41:50.866Z,24.20
2022-07-29T19:44:45.841Z,24.10
2022-07-29T19:47:34.388Z,24.10
2022-07-29T19:50:23.172Z,24.10
2022-07-29T19:53:12.415Z,24.10
2022-07-29T19:56:02.334Z,24.00
2022-07-29T19:58:51.944Z,24.00
2022-07-29T20:01:40.547Z,24.00
2022-07-29T20:04:29.285Z,24.10
2022-07-29T20:07:17.810Z,24.00
2022-07-29T20:10:07.659Z,24.00
2022-07-29T20:13:00.159Z,24.00
2022-07-29T20:15:48.723Z,24.00
2022-07-29T20:18:37.282Z,24.00
2022-07-29T20:21:26.762Z,24.10
2022-07-29T20:24:15.239Z,24.10
2022-07-29T20:27:03.761Z,24.10
2022-07-29T20:30:03.243Z,24.10
2022-07-29T20:32:51.908Z,24.10
2022-07-29T20:35:40.987Z,24.10
2022-07-29T20:38:30.579Z,24.10
2022-07-29T20:41:19.151Z,24.10
2022-07-29T20:44:07.681Z,24.10
2022-07-29T20:46:57.821Z,24.20
2022-07-29T20:49:46.495Z,24.20
2022-07-29T20:52:35.066Z,24.20
2022-07-29T20:55:23.617Z,24.20
2022-07-29T20:58:12.168Z,24.20
2022-07-29T21:01:00.733Z,24.20
2022-07-29T21:03:50.810Z,24.20
2022-07-29T21:06:39.390Z,24.20
2022-07-29T21:09:28.376Z,24.20
2022-07-29T21:12:17.308Z,24.20
2022-07-29T21:15:06.963Z,24.10
2022-07-29T21:18:00.550Z,24.10
2022-07-29T21:20:50.400Z,24.00
2022-07-29T21:23:38.876Z,24.00
2022-07-29T21:26:27.472Z,23.90
2022-07-29T21:29:15.532Z,23.80
2022-07-29T21:32:04.224Z,23.70
2022-07-29T21:34:52.686Z,23.60
2022-07-29T21:37:42.553Z,23.50
2022-07-29T21:40:31.129Z,23.40
2022-07-29T21:43:19.920Z,23.30
2022-07-29T21:46:08.426Z,23.20
2022-07-29T21:48:57.139Z,23.10
2022-07-29T21:51:45.917Z,23.10
2022-07-29T21:54:35.932Z,23.00
2022-07-29T21:57:26.378Z,22.90
2022-07-29T22:00:15.905Z,22.80
2022-07-29T22:03:04.864Z,22.80
2022-07-29T22:05:53.431Z,22.70
2022-07-29T22:08:45.395Z,22.70
2022-07-29T22:11:36.673Z,22.70
2022-07-29T22:14:25.117Z,22.60
2022-07-29T22:17:14.118Z,22.60
2022-07-29T22:20:02.736Z,22.60
2022-07-29T22:22:51.198Z,22.60
2022-07-29T22:25:39.720Z,22.50
2022-07-29T22:28:29.580Z,22.50
2022-07-29T22:31:18.135Z,22.50
2022-07-29T22:34:11.633Z,22.40
2022-07-29T22:37:00.408Z,22.40
2022-07-29T22:39:49.098Z,22.40
2022-07-29T22:42:40.665Z,22.40
2022-07-29T22:45:30.881Z,22.30
2022-07-29T22:48:19.412Z,22.30
2022-07-29T22:51:07.984Z,22.40
2022-07-29T22:53:57.618Z,22.40
2022-07-29T22:56:46.053Z,22.50
2022-07-29T22:59:34.559Z,22.50
2022-07-29T23:02:24.395Z,22.50
2022-07-29T23:05:15.605Z,22.50
2022-07-29T23:08:04.398Z,22.50
2022-07-29T23:10:52.869Z,22.50
2022-07-29T23:13:41.449Z,22.60
2022-07-29T23:16:30.155Z,22.50
2022-07-29T23:19:20.043Z,22.50
2022-07-29T23:22:08.552Z,22.60
2022-07-29T23:24:57.049Z,22.60
2022-07-29T23:27:45.638Z,22.60
2022-07-29T23:30:34.164Z,22.60
2022-07-29T23:33:22.621Z,22.60
2022-07-29T23:36:12.430Z,22.60
2022-07-29T23:39:00.935Z,22.70
2022-07-29T23:41:49.461Z,22.70
2022-07-29T23:44:38.141Z,22.70
2022-07-29T23:47:26.952Z,22.70
2022-07-29T23:50:16.859Z,22.70
2022-07-29T23:53:06.706Z,22.60
2022-07-29T23:55:55.217Z,22.60
2022-07-29T23:58:43.759Z,22.60
